Allendorf/Eder Airport


Codes: EDFQ/
Name: Allendorf/Eder Airport
City: Allendorf
Country: Germany
Elevation: 1158 ft.

Photos at Allendorf/Eder Airport


   Photos courtesy of SpottingLog. You can add your own sightings and photos by signing up for a free trial today.



No photos found.

Weather at Allendorf/Eder Airport


Time (UTC)DescriptionTempratureWindCloud coverageVisibilityPressureHumidity
16-Jun-2024 12:00Light Rain18°C16 mph, SW99%10000m1009hPa64%
16-Jun-2024 15:00Light Rain14°C9 mph, SW99%10000m1010hPa87%
16-Jun-2024 18:00Light Rain12°C7 mph, S99%10000m1010hPa96%
16-Jun-2024 21:00Overcast Clouds10°C4 mph, S99%10000m1012hPa98%
17-Jun-2024 00:00Overcast Clouds11°C4 mph, S94%10000m1012hPa99%
17-Jun-2024 03:00Overcast Clouds11°C4 mph, S100%965m1012hPa100%
17-Jun-2024 06:00Overcast Clouds12°C7 mph, S100%2015m1013hPa98%
17-Jun-2024 09:00Light Rain16°C9 mph, SW91%10000m1013hPa88%
17-Jun-2024 12:00Light Rain18°C11 mph, SW93%10000m1013hPa67%
17-Jun-2024 15:00Light Rain18°C9 mph, SW98%10000m1013hPa73%
17-Jun-2024 18:00Light Rain16°C7 mph, SW99%10000m1014hPa88%
17-Jun-2024 21:00Light Rain12°C2 mph, SW80%10000m1015hPa95%
18-Jun-2024 00:00Broken Clouds12°C2 mph, SW84%10000m1016hPa96%
18-Jun-2024 03:00Broken Clouds11°C2 mph, SW72%10000m1016hPa98%
18-Jun-2024 06:00Overcast Clouds14°C2 mph, S86%10000m1016hPa96%
18-Jun-2024 09:00Broken Clouds19°C7 mph, S70%10000m1016hPa72%
18-Jun-2024 12:00Light Rain21°C4 mph, S70%8802m1014hPa76%
18-Jun-2024 15:00Moderate Rain18°C2 mph, SE100%10000m1013hPa94%
18-Jun-2024 18:00Moderate Rain17°C4 mph, NW100%10000m1012hPa95%
18-Jun-2024 21:00Moderate Rain15°C7 mph, NW100%10000m1014hPa97%
19-Jun-2024 00:00Light Rain12°C4 mph, NW100%10000m1016hPa96%
19-Jun-2024 03:00Broken Clouds10°C4 mph, NW58%10000m1018hPa97%
19-Jun-2024 06:00Broken Clouds12°C4 mph, NW60%10000m1020hPa90%
19-Jun-2024 09:00Overcast Clouds16°C7 mph, NW86%10000m1021hPa62%
19-Jun-2024 12:00Broken Clouds19°C9 mph, NW64%10000m1022hPa46%
19-Jun-2024 15:00Broken Clouds20°C7 mph, NW79%10000m1022hPa45%
19-Jun-2024 18:00Broken Clouds16°C4 mph, N61%10000m1023hPa67%
19-Jun-2024 21:00Broken Clouds9°C4 mph, N63%10000m1024hPa90%
20-Jun-2024 00:00Scattered Clouds8°C2 mph, N33%10000m1024hPa93%
20-Jun-2024 03:00Clear Sky7°C2 mph, N0%10000m1023hPa92%
20-Jun-2024 06:00Clear Sky13°C2 mph, E0%10000m1022hPa70%
20-Jun-2024 09:00Scattered Clouds19°C4 mph, SE32%10000m1020hPa57%
20-Jun-2024 12:00Broken Clouds22°C4 mph, SE56%10000m1018hPa53%
20-Jun-2024 15:00Overcast Clouds22°C4 mph, SE100%10000m1016hPa58%
20-Jun-2024 18:00Broken Clouds22°C7 mph, SE58%10000m1014hPa77%
20-Jun-2024 21:00Broken Clouds18°C2 mph, E69%10000m1013hPa89%
21-Jun-2024 00:00Light Rain18°C2 mph, N84%10000m1012hPa94%
21-Jun-2024 03:00Light Rain16°C4 mph, N33%10000m1011hPa96%
21-Jun-2024 06:00Scattered Clouds19°C9 mph, S49%10000m1011hPa96%
21-Jun-2024 09:00Overcast Clouds22°C13 mph, SW92%10000m1013hPa69%